sensor_id;sensor_type;location;lat;lon;timestamp;pressure;altitude;pressure_sealevel;temperature;humidity
78094;BME280;67327;37.152;-76.406;2023-02-01T17:01:19;102704.09;;;3.27;83.66
78094;BME280;67327;37.152;-76.406;2023-02-01T17:03:44;102700.28;;;6.02;74.79
78094;BME280;67327;37.152;-76.406;2023-02-01T17:06:11;102694.94;;;8.01;67.43
78094;BME280;67327;37.152;-76.406;2023-02-01T17:08:37;102691.47;;;10.02;61.28
78094;BME280;67327;37.152;-76.406;2023-02-01T17:10:59;102704.75;;;11.54;57.06
78094;BME280;67327;37.152;-76.406;2023-02-01T17:13:25;102677.26;;;12.44;53.60
78094;BME280;67327;37.152;-76.406;2023-02-01T17:15:52;102666.98;;;13.75;51.13
78094;BME280;67327;37.152;-76.406;2023-02-01T17:18:16;102661.75;;;14.57;48.16
78094;BME280;67327;37.152;-76.406;2023-02-01T17:20:41;102652.71;;;15.00;46.30
78094;BME280;67327;37.152;-76.406;2023-02-01T17:23:06;102632.93;;;15.70;43.98
78094;BME280;67327;37.152;-76.406;2023-02-01T17:25:31;102621.96;;;16.08;41.78
78094;BME280;67327;37.152;-76.406;2023-02-01T17:27:56;102632.50;;;16.34;39.97
78094;BME280;67327;37.152;-76.406;2023-02-01T17:30:21;102630.52;;;16.57;39.37
78094;BME280;67327;37.152;-76.406;2023-02-01T17:32:46;102624.44;;;17.02;37.02
78094;BME280;67327;37.152;-76.406;2023-02-01T17:35:18;102616.02;;;17.30;37.86
78094;BME280;67327;37.152;-76.406;2023-02-01T17:37:37;102608.82;;;17.54;37.90
78094;BME280;67327;37.152;-76.406;2023-02-01T17:40:02;102608.15;;;18.12;35.93
78094;BME280;67327;37.152;-76.406;2023-02-01T17:42:29;102608.27;;;18.24;34.61
78094;BME280;67327;37.152;-76.406;2023-02-01T17:44:55;102606.45;;;18.22;33.80
78094;BME280;67327;37.152;-76.406;2023-02-01T17:47:17;102599.53;;;18.44;33.56
78094;BME280;67327;37.152;-76.406;2023-02-01T17:49:42;102594.46;;;18.88;32.96
78094;BME280;67327;37.152;-76.406;2023-02-01T17:52:10;102590.60;;;18.85;32.19
78094;BME280;67327;37.152;-76.406;2023-02-01T17:54:33;102588.71;;;18.79;32.12
78094;BME280;67327;37.152;-76.406;2023-02-01T17:56:59;102599.43;;;19.27;32.13
78094;BME280;67327;37.152;-76.406;2023-02-01T17:59:23;102599.07;;;19.16;31.30
78094;BME280;67327;37.152;-76.406;2023-02-01T18:01:48;102593.11;;;19.49;30.93
78094;BME280;67327;37.152;-76.406;2023-02-01T18:04:16;102590.62;;;19.53;30.46
78094;BME280;67327;37.152;-76.406;2023-02-01T18:06:39;102589.26;;;19.10;30.08
78094;BME280;67327;37.152;-76.406;2023-02-01T18:09:04;102596.76;;;19.25;30.26
78094;BME280;67327;37.152;-76.406;2023-02-01T18:11:29;102596.34;;;19.41;29.71
78094;BME280;67327;37.152;-76.406;2023-02-01T18:13:54;102607.65;;;19.97;30.28
78094;BME280;67327;37.152;-76.406;2023-02-01T18:16:21;102614.36;;;19.86;29.49
78094;BME280;67327;37.152;-76.406;2023-02-01T18:18:45;102628.16;;;20.16;28.73
78094;BME280;67327;37.152;-76.406;2023-02-01T18:21:10;102636.32;;;19.91;28.46
78094;BME280;67327;37.152;-76.406;2023-02-01T18:23:35;102625.34;;;19.97;27.95
78094;BME280;67327;37.152;-76.406;2023-02-01T18:26:00;102612.37;;;19.90;27.51
78094;BME280;67327;37.152;-76.406;2023-02-01T18:28:25;102616.98;;;19.70;26.95
78094;BME280;67327;37.152;-76.406;2023-02-01T18:30:50;102616.16;;;19.67;27.15
78094;BME280;67327;37.152;-76.406;2023-02-01T18:33:17;102611.45;;;19.55;26.31
78094;BME280;67327;37.152;-76.406;2023-02-01T18:35:41;102620.36;;;19.68;26.49
78094;BME280;67327;37.152;-76.406;2023-02-01T18:38:06;102625.97;;;19.63;26.72
78094;BME280;67327;37.152;-76.406;2023-02-01T18:40:33;102615.35;;;19.64;26.87
78094;BME280;67327;37.152;-76.406;2023-02-01T18:42:56;102605.49;;;19.48;27.06
78094;BME280;67327;37.152;-76.406;2023-02-01T18:45:28;102595.31;;;19.60;26.92
78094;BME280;67327;37.152;-76.406;2023-02-01T18:47:47;102581.58;;;19.74;26.88
78094;BME280;67327;37.152;-76.406;2023-02-01T18:50:12;102584.83;;;19.89;26.96
78094;BME280;67327;37.152;-76.406;2023-02-01T18:52:37;102600.60;;;19.70;26.55
78094;BME280;67327;37.152;-76.406;2023-02-01T18:55:02;102607.37;;;19.93;25.89
78094;BME280;67327;37.152;-76.406;2023-02-01T18:57:27;102603.75;;;19.92;25.41
78094;BME280;67327;37.152;-76.406;2023-02-01T18:59:52;102617.33;;;19.65;25.38
78094;BME280;67327;37.152;-76.406;2023-02-01T19:02:18;102621.49;;;19.95;25.12
78094;BME280;67327;37.152;-76.406;2023-02-01T19:04:43;102617.56;;;20.11;25.50
78094;BME280;67327;37.152;-76.406;2023-02-01T19:07:08;102612.66;;;20.15;24.37
78094;BME280;67327;37.152;-76.406;2023-02-01T19:09:33;102611.37;;;20.13;25.04
78094;BME280;67327;37.152;-76.406;2023-02-01T19:11:58;102587.41;;;20.36;25.46
78094;BME280;67327;37.152;-76.406;2023-02-01T19:14:24;102544.61;;;20.40;24.85
78094;BME280;67327;37.152;-76.406;2023-02-01T19:16:49;102558.92;;;20.57;24.10
78094;BME280;67327;37.152;-76.406;2023-02-01T19:19:14;102569.58;;;20.17;23.98
78094;BME280;67327;37.152;-76.406;2023-02-01T19:21:39;102574.15;;;20.42;24.63
78094;BME280;67327;37.152;-76.406;2023-02-01T19:24:05;102571.03;;;20.16;24.33
78094;BME280;67327;37.152;-76.406;2023-02-01T19:26:29;102586.37;;;20.36;24.19
78094;BME280;67327;37.152;-76.406;2023-02-01T19:28:57;102585.15;;;20.34;24.41
78094;BME280;67327;37.152;-76.406;2023-02-01T19:31:20;102588.95;;;20.40;24.24
78094;BME280;67327;37.152;-76.406;2023-02-01T19:33:45;102581.80;;;20.20;23.87
78094;BME280;67327;37.152;-76.406;2023-02-01T19:36:10;102579.93;;;20.19;23.44
78094;BME280;67327;37.152;-76.406;2023-02-01T19:38:36;102563.85;;;20.16;23.61
78094;BME280;67327;37.152;-76.406;2023-02-01T19:41:00;102566.32;;;20.39;23.80
78094;BME280;67327;37.152;-76.406;2023-02-01T19:43:26;102587.48;;;20.16;23.91
78094;BME280;67327;37.152;-76.406;2023-02-01T19:45:52;102588.25;;;20.12;23.42
78094;BME280;67327;37.152;-76.406;2023-02-01T19:48:16;102569.65;;;20.34;23.57
78094;BME280;67327;37.152;-76.406;2023-02-01T19:50:41;102555.54;;;20.32;23.30
78094;BME280;67327;37.152;-76.406;2023-02-01T19:53:06;102560.88;;;20.43;23.39
78094;BME280;67327;37.152;-76.406;2023-02-01T19:55:31;102566.63;;;20.29;23.50
78094;BME280;67327;37.152;-76.406;2023-02-01T19:57:57;102578.02;;;20.39;23.56
78094;BME280;67327;37.152;-76.406;2023-02-01T20:00:22;102600.39;;;20.44;23.29
78094;BME280;67327;37.152;-76.406;2023-02-01T20:02:47;102605.45;;;20.44;22.94
78094;BME280;67327;37.152;-76.406;2023-02-01T20:05:12;102601.42;;;20.65;22.77
78094;BME280;67327;37.152;-76.406;2023-02-01T20:07:38;102588.52;;;20.64;22.21
78094;BME280;67327;37.152;-76.406;2023-02-01T20:10:03;102585.62;;;20.40;22.27
78094;BME280;67327;37.152;-76.406;2023-02-01T20:12:27;102598.12;;;20.72;22.51
78094;BME280;67327;37.152;-76.406;2023-02-01T20:14:53;102608.30;;;20.76;22.26
78094;BME280;67327;37.152;-76.406;2023-02-01T20:17:18;102600.69;;;20.63;22.58
78094;BME280;67327;37.152;-76.406;2023-02-01T20:19:43;102592.81;;;20.67;22.13
78094;BME280;67327;37.152;-76.406;2023-02-01T20:22:08;102614.15;;;20.64;21.87
78094;BME280;67327;37.152;-76.406;2023-02-01T20:24:33;102627.75;;;20.54;21.45
78094;BME280;67327;37.152;-76.406;2023-02-01T20:26:59;102633.15;;;20.42;21.19
78094;BME280;67327;37.152;-76.406;2023-02-01T20:29:24;102627.08;;;20.39;21.69
78094;BME280;67327;37.152;-76.406;2023-02-01T20:31:49;102624.67;;;20.25;21.65
78094;BME280;67327;37.152;-76.406;2023-02-01T20:34:14;102631.53;;;20.75;21.44
78094;BME280;67327;37.152;-76.406;2023-02-01T20:36:40;102631.91;;;20.23;21.50
78094;BME280;67327;37.152;-76.406;2023-02-01T20:39:05;102608.67;;;20.43;21.55
78094;BME280;67327;37.152;-76.406;2023-02-01T20:41:30;102607.18;;;20.41;21.55
78094;BME280;67327;37.152;-76.406;2023-02-01T20:43:55;102603.10;;;20.67;21.93
78094;BME280;67327;37.152;-76.406;2023-02-01T20:46:21;102593.96;;;20.65;21.22
78094;BME280;67327;37.152;-76.406;2023-02-01T20:48:47;102573.25;;;20.46;21.04
78094;BME280;67327;37.152;-76.406;2023-02-01T20:51:11;102586.76;;;20.61;20.82
78094;BME280;67327;37.152;-76.406;2023-02-01T20:53:35;102607.42;;;20.44;20.32
78094;BME280;67327;37.152;-76.406;2023-02-01T20:56:01;102622.24;;;20.42;20.14
78094;BME280;67327;37.152;-76.406;2023-02-01T20:58:26;102633.37;;;20.10;19.85
78094;BME280;67327;37.152;-76.406;2023-02-01T21:00:51;102647.52;;;20.15;20.48
78094;BME280;67327;37.152;-76.406;2023-02-01T21:03:16;102637.86;;;20.10;20.11
78094;BME280;67327;37.152;-76.406;2023-02-01T21:05:46;102629.51;;;20.32;20.64
78094;BME280;67327;37.152;-76.406;2023-02-01T21:08:08;102615.98;;;20.27;21.10
78094;BME280;67327;37.152;-76.406;2023-02-01T21:10:33;102607.89;;;20.28;21.29
78094;BME280;67327;37.152;-76.406;2023-02-01T21:12:57;102616.26;;;20.12;20.53
78094;BME280;67327;37.152;-76.406;2023-02-01T21:15:22;102616.86;;;19.92;20.78
78094;BME280;67327;37.152;-76.406;2023-02-01T21:17:47;102610.60;;;19.85;20.69
78094;BME280;67327;37.152;-76.406;2023-02-01T21:20:13;102631.16;;;19.90;21.51
78094;BME280;67327;37.152;-76.406;2023-02-01T21:22:38;102642.70;;;20.01;20.99
78094;BME280;67327;37.152;-76.406;2023-02-01T21:25:04;102654.85;;;19.55;21.43
78094;BME280;67327;37.152;-76.406;2023-02-01T21:27:28;102655.56;;;19.82;21.27
78094;BME280;67327;37.152;-76.406;2023-02-01T21:29:54;102641.08;;;19.70;21.17
78094;BME280;67327;37.152;-76.406;2023-02-01T21:32:19;102610.49;;;19.70;21.51
78094;BME280;67327;37.152;-76.406;2023-02-01T21:34:44;102609.25;;;19.85;21.51
78094;BME280;67327;37.152;-76.406;2023-02-01T21:37:09;102649.56;;;19.58;21.65
78094;BME280;67327;37.152;-76.406;2023-02-01T21:39:34;102673.98;;;19.61;21.73
78094;BME280;67327;37.152;-76.406;2023-02-01T21:41:59;102658.16;;;19.35;21.72
78094;BME280;67327;37.152;-76.406;2023-02-01T21:44:25;102636.11;;;19.47;21.42
78094;BME280;67327;37.152;-76.406;2023-02-01T21:46:50;102627.78;;;19.34;21.31
78094;BME280;67327;37.152;-76.406;2023-02-01T21:49:15;102627.63;;;19.29;21.32
78094;BME280;67327;37.152;-76.406;2023-02-01T21:51:41;102646.41;;;19.20;21.44
78094;BME280;67327;37.152;-76.406;2023-02-01T21:54:06;102637.85;;;19.43;21.57
78094;BME280;67327;37.152;-76.406;2023-02-01T21:56:31;102640.92;;;19.45;21.55
78094;BME280;67327;37.152;-76.406;2023-02-01T21:58:56;102668.85;;;19.52;21.95
78094;BME280;67327;37.152;-76.406;2023-02-01T22:01:21;102665.03;;;19.59;21.69
78094;BME280;67327;37.152;-76.406;2023-02-01T22:03:46;102636.40;;;19.38;21.50
78094;BME280;67327;37.152;-76.406;2023-02-01T22:08:37;102643.81;;;19.34;21.39
78094;BME280;67327;37.152;-76.406;2023-02-01T22:11:02;102671.24;;;19.38;21.29
78094;BME280;67327;37.152;-76.406;2023-02-01T22:13:27;102674.80;;;19.52;21.34
78094;BME280;67327;37.152;-76.406;2023-02-01T22:15:52;102647.06;;;19.17;21.29
78094;BME280;67327;37.152;-76.406;2023-02-01T22:18:17;102638.08;;;18.90;20.73
78094;BME280;67327;37.152;-76.406;2023-02-01T22:20:43;102662.22;;;19.13;21.11
78094;BME280;67327;37.152;-76.406;2023-02-01T22:23:08;102661.55;;;18.88;21.24
78094;BME280;67327;37.152;-76.406;2023-02-01T22:25:33;102653.29;;;19.01;20.82
78094;BME280;67327;37.152;-76.406;2023-02-01T22:27:58;102664.96;;;18.90;21.03
78094;BME280;67327;37.152;-76.406;2023-02-01T22:30:23;102684.05;;;18.94;20.68
78094;BME280;67327;37.152;-76.406;2023-02-01T22:32:49;102700.41;;;18.82;20.79
78094;BME280;67327;37.152;-76.406;2023-02-01T22:35:14;102714.16;;;18.61;20.76
78094;BME280;67327;37.152;-76.406;2023-02-01T22:37:39;102703.39;;;18.79;20.95
78094;BME280;67327;37.152;-76.406;2023-02-01T22:40:05;102688.65;;;18.38;20.91
78094;BME280;67327;37.152;-76.406;2023-02-01T22:42:29;102686.51;;;18.37;21.14
78094;BME280;67327;37.152;-76.406;2023-02-01T22:44:55;102699.58;;;18.56;21.11
78094;BME280;67327;37.152;-76.406;2023-02-01T22:47:20;102705.33;;;18.47;21.18
78094;BME280;67327;37.152;-76.406;2023-02-01T22:49:45;102705.13;;;18.39;21.13
78094;BME280;67327;37.152;-76.406;2023-02-01T22:52:10;102718.75;;;18.30;20.99
78094;BME280;67327;37.152;-76.406;2023-02-01T22:54:35;102725.00;;;18.23;21.13
78094;BME280;67327;37.152;-76.406;2023-02-01T22:57:01;102726.28;;;18.24;21.34
78094;BME280;67327;37.152;-76.406;2023-02-01T22:59:26;102719.61;;;18.24;21.44
78094;BME280;67327;37.152;-76.406;2023-02-01T23:01:51;102724.35;;;18.13;21.21
78094;BME280;67327;37.152;-76.406;2023-02-01T23:04:17;102737.96;;;17.90;21.54
78094;BME280;67327;37.152;-76.406;2023-02-01T23:06:42;102738.40;;;18.12;21.49
78094;BME280;67327;37.152;-76.406;2023-02-01T23:09:12;102742.86;;;18.32;20.77
78094;BME280;67327;37.152;-76.406;2023-02-01T23:11:32;102748.13;;;18.31;21.32
78094;BME280;67327;37.152;-76.406;2023-02-01T23:13:57;102739.77;;;17.82;21.55
78094;BME280;67327;37.152;-76.406;2023-02-01T23:16:22;102729.38;;;18.03;21.44
78094;BME280;67327;37.152;-76.406;2023-02-01T23:18:47;102721.68;;;18.30;21.58
78094;BME280;67327;37.152;-76.406;2023-02-01T23:21:16;102710.28;;;18.13;21.96
78094;BME280;67327;37.152;-76.406;2023-02-01T23:23:38;102702.18;;;17.90;21.91
78094;BME280;67327;37.152;-76.406;2023-02-01T23:26:04;102706.53;;;18.10;21.70
78094;BME280;67327;37.152;-76.406;2023-02-01T23:28:29;102705.59;;;18.08;21.55
78094;BME280;67327;37.152;-76.406;2023-02-01T23:30:54;102723.99;;;17.97;21.45
78094;BME280;67327;37.152;-76.406;2023-02-01T23:33:21;102744.64;;;17.73;21.15
78094;BME280;67327;37.152;-76.406;2023-02-01T23:35:53;102759.01;;;17.68;21.61
78094;BME280;67327;37.152;-76.406;2023-02-01T23:38:09;102751.43;;;17.39;21.96
78094;BME280;67327;37.152;-76.406;2023-02-01T23:40:34;102764.96;;;17.36;22.17
78094;BME280;67327;37.152;-76.406;2023-02-01T23:42:59;102771.25;;;17.42;22.40
78094;BME280;67327;37.152;-76.406;2023-02-01T23:45:25;102768.56;;;17.47;22.38
78094;BME280;67327;37.152;-76.406;2023-02-01T23:47:50;102757.70;;;17.49;22.41
78094;BME280;67327;37.152;-76.406;2023-02-01T23:50:15;102765.06;;;17.49;22.44
78094;BME280;67327;37.152;-76.406;2023-02-01T23:52:40;102765.57;;;17.34;21.99
78094;BME280;67327;37.152;-76.406;2023-02-01T23:55:06;102759.38;;;17.27;22.20
78094;BME280;67327;37.152;-76.406;2023-02-01T23:57:31;102765.26;;;17.19;21.97
78094;BME280;67327;37.152;-76.406;2023-02-01T23:59:56;102780.57;;;17.17;22.24
